YSSYYCBA

Guest
Details From YSSY - Sydney Intl
To YCBA - Cobar
Flight Number -
Tags Generated
Created
Modified
Stats Distance 309 nm / 573 km
Max Altitude 0 ft / 0 m
Waypoints 4
Social Downloads 0
Likes 0
Share VATSIM

Download

Looking for another format? Having issues loading an existing format? Contact us
Advertisement - Login to hide

Notes

Generated

Route

YSSY PKSEB CBA YCBA

ID Type Via Altitude Latitude Longitude Leg Dist Tot Dist Heading (true) Name
O YSSY APT - 0 ft / 0 m -33.94962˚ 151.18832˚ - 0 nm - -
PKSEB FIX - 0 ft / 0 m -32.97672˚ 148.49483˚ 147 nm 147 nm 293° / 294° -
CBA NDB - 0 ft / 0 m -31.54000˚ 145.79861˚ 161 nm 308 nm 301° / 303° COBAR NDB
O YCBA APT - 0 ft / 0 m -31.53528˚ 145.79456˚ 0 nm 309 nm 324° / 324° Cobar

Altitude Profile

Advertisement - Login to hide

Weather


0- 5 10 15 20 25 30 35+ Temperature / ° C

Clouds and Precipitation
Forecast for 2018-05-26 18:00 UTC. Updated 44 minutes ago

Ground ~20,000 ft ~40,000 ft Winds

YSSY

Details ICAO YSSY (SYD)
Name Sydney Intl
Region Australia
Timezone Australia/Sydney (UTC+10.0)
Stats Elevation 21 ft / 6 m (AMSL)
Location -33.949273° 151.181347°
Runways 3
Magnetic Variation 12.604° E

METAR

YSSY 261800Z 36006KT CAVOK 11/09 Q1028 NOSIG

Decode

TAF

TAF YSSY 261105Z 2612/2718 29008KT CAVOK FM270400 03010KT CAVOK FM271100 29008KT CAVOK

Decode

Departure Runways

ID Width Length Bearing (true) Bearing (mag) Surface Threshold Offset Overrun Length
07 148 ft / 45 m 8,285 ft / 2,525 m 74.13° 61.53° Asphalt 0 ft / 0 m 0 ft / 0 m
16L 148 ft / 45 m 8,018 ft / 2,444 m 167.81° 155.21° Asphalt 758 ft / 231 m 0 ft / 0 m
16R 148 ft / 45 m 13,033 ft / 3,973 m 167.86° 155.26° Asphalt 279 ft / 85 m 0 ft / 0 m
25 148 ft / 45 m 8,285 ft / 2,525 m 254.12° 241.52° Asphalt 324 ft / 99 m 0 ft / 0 m
34L 148 ft / 45 m 13,033 ft / 3,973 m 347.85° 335.25° Asphalt 0 ft / 0 m 0 ft / 0 m
34R 148 ft / 45 m 8,018 ft / 2,444 m 347.81° 335.21° Asphalt 125 ft / 38 m 0 ft / 0 m

YCBA

Details ICAO YCBA (CAZ)
Name Cobar
Region Australia
Timezone Australia/Sydney (UTC+10.0)
Stats Elevation 724 ft / 221 m (AMSL)
Location -31.539197° 145.794447°
Runways 2
Magnetic Variation 9.899° E

METAR

YCBA 261800Z AUTO 06005KT 9999 // NCD 11/07 Q1025

Decode

TAF

Not found

Destination Runways

ID Width Length Bearing (true) Bearing (mag) Surface Threshold Offset Overrun Length
05 98 ft / 30 m 4,983 ft / 1,519 m 54.80° 44.90° Asphalt 0 ft / 0 m 0 ft / 0 m
17 98 ft / 30 m 4,021 ft / 1,226 m 175.22° 165.32° Dirt 0 ft / 0 m 0 ft / 0 m
23 98 ft / 30 m 4,983 ft / 1,519 m 234.80° 224.90° Asphalt 0 ft / 0 m 0 ft / 0 m
35 98 ft / 30 m 4,021 ft / 1,226 m 355.22° 345.32° Dirt 0 ft / 0 m 0 ft / 0 m

Popular Alternatives